sensor_id;sensor_type;location;lat;lon;timestamp;P1;durP1;ratioP1;P2;durP2;ratioP2
64653;SDS011;51065;48.884;12.598;2023-02-28T00:00:18;5.20;;;2.47;;
64653;SDS011;51065;48.884;12.598;2023-02-28T00:02:45;6.75;;;2.63;;
64653;SDS011;51065;48.884;12.598;2023-02-28T00:05:12;8.60;;;2.80;;
64653;SDS011;51065;48.884;12.598;2023-02-28T00:07:38;9.95;;;3.10;;
64653;SDS011;51065;48.884;12.598;2023-02-28T00:10:05;5.55;;;2.65;;
64653;SDS011;51065;48.884;12.598;2023-02-28T00:12:32;6.65;;;2.83;;
64653;SDS011;51065;48.884;12.598;2023-02-28T00:14:59;5.97;;;2.60;;
64653;SDS011;51065;48.884;12.598;2023-02-28T00:17:25;8.40;;;2.55;;
64653;SDS011;51065;48.884;12.598;2023-02-28T00:19:50;8.60;;;3.10;;
64653;SDS011;51065;48.884;12.598;2023-02-28T00:22:16;8.15;;;3.03;;
64653;SDS011;51065;48.884;12.598;2023-02-28T00:24:44;7.50;;;2.63;;
64653;SDS011;51065;48.884;12.598;2023-02-28T00:27:10;9.07;;;2.83;;
64653;SDS011;51065;48.884;12.598;2023-02-28T00:29:36;6.45;;;2.75;;
64653;SDS011;51065;48.884;12.598;2023-02-28T00:32:02;6.35;;;2.47;;
64653;SDS011;51065;48.884;12.598;2023-02-28T00:34:28;6.88;;;2.83;;
64653;SDS011;51065;48.884;12.598;2023-02-28T00:36:54;6.07;;;2.40;;
64653;SDS011;51065;48.884;12.598;2023-02-28T00:39:19;8.35;;;2.95;;
64653;SDS011;51065;48.884;12.598;2023-02-28T00:41:45;9.73;;;3.33;;
64653;SDS011;51065;48.884;12.598;2023-02-28T00:44:11;10.48;;;3.25;;
64653;SDS011;51065;48.884;12.598;2023-02-28T00:46:36;6.38;;;2.55;;
64653;SDS011;51065;48.884;12.598;2023-02-28T00:49:02;7.20;;;2.88;;
64653;SDS011;51065;48.884;12.598;2023-02-28T00:51:27;6.47;;;2.50;;
64653;SDS011;51065;48.884;12.598;2023-02-28T00:53:53;8.38;;;2.70;;
64653;SDS011;51065;48.884;12.598;2023-02-28T00:56:20;8.75;;;2.80;;
64653;SDS011;51065;48.884;12.598;2023-02-28T00:58:45;7.60;;;3.05;;
64653;SDS011;51065;48.884;12.598;2023-02-28T01:01:11;7.57;;;3.28;;
64653;SDS011;51065;48.884;12.598;2023-02-28T01:03:37;6.93;;;2.35;;
64653;SDS011;51065;48.884;12.598;2023-02-28T01:06:03;8.82;;;3.10;;
64653;SDS011;51065;48.884;12.598;2023-02-28T01:08:28;4.88;;;2.47;;
64653;SDS011;51065;48.884;12.598;2023-02-28T01:10:54;7.22;;;2.63;;
64653;SDS011;51065;48.884;12.598;2023-02-28T01:13:20;8.25;;;2.60;;
64653;SDS011;51065;48.884;12.598;2023-02-28T01:15:52;7.25;;;2.50;;
64653;SDS011;51065;48.884;12.598;2023-02-28T01:18:20;4.63;;;2.15;;
64653;SDS011;51065;48.884;12.598;2023-02-28T01:20:46;6.68;;;2.50;;
64653;SDS011;51065;48.884;12.598;2023-02-28T01:23:13;7.57;;;2.58;;
64653;SDS011;51065;48.884;12.598;2023-02-28T01:25:39;7.40;;;2.88;;
64653;SDS011;51065;48.884;12.598;2023-02-28T01:28:04;10.00;;;3.30;;
64653;SDS011;51065;48.884;12.598;2023-02-28T01:30:31;6.35;;;2.55;;
64653;SDS011;51065;48.884;12.598;2023-02-28T01:32:57;9.95;;;3.20;;
64653;SDS011;51065;48.884;12.598;2023-02-28T01:35:23;9.00;;;3.05;;
64653;SDS011;51065;48.884;12.598;2023-02-28T01:37:48;9.00;;;2.97;;
64653;SDS011;51065;48.884;12.598;2023-02-28T01:40:14;7.28;;;3.08;;
64653;SDS011;51065;48.884;12.598;2023-02-28T01:42:40;6.00;;;2.50;;
64653;SDS011;51065;48.884;12.598;2023-02-28T01:45:22;7.03;;;3.00;;
64653;SDS011;51065;48.884;12.598;2023-02-28T01:47:58;7.88;;;2.92;;
64653;SDS011;51065;48.884;12.598;2023-02-28T01:50:27;6.60;;;2.75;;
64653;SDS011;51065;48.884;12.598;2023-02-28T01:52:55;9.32;;;3.47;;
64653;SDS011;51065;48.884;12.598;2023-02-28T01:55:24;7.88;;;3.45;;
64653;SDS011;51065;48.884;12.598;2023-02-28T01:57:55;8.98;;;3.38;;
64653;SDS011;51065;48.884;12.598;2023-02-28T02:00:24;6.38;;;2.92;;
64653;SDS011;51065;48.884;12.598;2023-02-28T02:02:55;5.88;;;2.60;;
64653;SDS011;51065;48.884;12.598;2023-02-28T02:05:24;10.52;;;3.17;;
64653;SDS011;51065;48.884;12.598;2023-02-28T02:07:57;7.65;;;3.25;;
64653;SDS011;51065;48.884;12.598;2023-02-28T02:10:31;8.25;;;3.03;;
64653;SDS011;51065;48.884;12.598;2023-02-28T02:13:19;7.25;;;3.35;;
64653;SDS011;51065;48.884;12.598;2023-02-28T02:18:57;7.25;;;3.05;;
64653;SDS011;51065;48.884;12.598;2023-02-28T02:27:27;11.23;;;3.65;;
64653;SDS011;51065;48.884;12.598;2023-02-28T02:36:03;12.65;;;4.35;;
64653;SDS011;51065;48.884;12.598;2023-02-28T02:38:37;6.97;;;3.55;;
64653;SDS011;51065;48.884;12.598;2023-02-28T02:41:19;6.38;;;3.20;;
64653;SDS011;51065;48.884;12.598;2023-02-28T02:44:45;10.40;;;3.80;;
64653;SDS011;51065;48.884;12.598;2023-02-28T02:46:48;11.32;;;3.50;;
64653;SDS011;51065;48.884;12.598;2023-02-28T02:49:26;9.07;;;3.47;;
64653;SDS011;51065;48.884;12.598;2023-02-28T02:51:55;9.93;;;3.63;;
64653;SDS011;51065;48.884;12.598;2023-02-28T02:54:25;10.25;;;3.88;;
64653;SDS011;51065;48.884;12.598;2023-02-28T02:56:56;8.93;;;3.78;;
64653;SDS011;51065;48.884;12.598;2023-02-28T02:59:24;11.38;;;4.18;;
64653;SDS011;51065;48.884;12.598;2023-02-28T03:01:53;10.95;;;4.28;;
64653;SDS011;51065;48.884;12.598;2023-02-28T03:04:23;11.50;;;3.40;;
64653;SDS011;51065;48.884;12.598;2023-02-28T03:06:52;13.60;;;4.03;;
64653;SDS011;51065;48.884;12.598;2023-02-28T03:09:21;10.02;;;3.95;;
64653;SDS011;51065;48.884;12.598;2023-02-28T03:11:47;9.15;;;3.65;;
64653;SDS011;51065;48.884;12.598;2023-02-28T03:16:55;10.50;;;3.83;;
64653;SDS011;51065;48.884;12.598;2023-02-28T03:22:43;7.82;;;3.28;;
64653;SDS011;51065;48.884;12.598;2023-02-28T03:25:21;8.73;;;3.83;;
64653;SDS011;51065;48.884;12.598;2023-02-28T03:33:20;10.07;;;3.70;;
64653;SDS011;51065;48.884;12.598;2023-02-28T03:35:51;10.20;;;3.53;;
64653;SDS011;51065;48.884;12.598;2023-02-28T03:40:55;10.50;;;3.97;;
64653;SDS011;51065;48.884;12.598;2023-02-28T03:43:28;10.13;;;3.60;;
64653;SDS011;51065;48.884;12.598;2023-02-28T03:48:31;12.77;;;4.30;;
64653;SDS011;51065;48.884;12.598;2023-02-28T03:51:01;11.75;;;3.53;;
64653;SDS011;51065;48.884;12.598;2023-02-28T03:53:32;13.43;;;4.28;;
64653;SDS011;51065;48.884;12.598;2023-02-28T03:58:35;9.13;;;3.60;;
64653;SDS011;51065;48.884;12.598;2023-02-28T04:01:18;12.40;;;4.43;;
64653;SDS011;51065;48.884;12.598;2023-02-28T04:03:48;13.57;;;5.22;;
64653;SDS011;51065;48.884;12.598;2023-02-28T04:06:19;8.98;;;3.83;;
64653;SDS011;51065;48.884;12.598;2023-02-28T04:08:46;10.90;;;4.55;;
64653;SDS011;51065;48.884;12.598;2023-02-28T04:14:00;11.40;;;4.38;;
64653;SDS011;51065;48.884;12.598;2023-02-28T04:16:27;10.57;;;4.32;;
64653;SDS011;51065;48.884;12.598;2023-02-28T04:18:53;13.40;;;4.43;;
64653;SDS011;51065;48.884;12.598;2023-02-28T04:21:18;9.77;;;4.05;;
64653;SDS011;51065;48.884;12.598;2023-02-28T04:23:45;15.05;;;4.47;;
64653;SDS011;51065;48.884;12.598;2023-02-28T04:26:11;11.63;;;4.22;;
64653;SDS011;51065;48.884;12.598;2023-02-28T04:28:37;13.48;;;5.30;;
64653;SDS011;51065;48.884;12.598;2023-02-28T04:31:03;12.05;;;4.85;;
64653;SDS011;51065;48.884;12.598;2023-02-28T04:33:30;12.88;;;4.93;;
64653;SDS011;51065;48.884;12.598;2023-02-28T04:35:57;15.13;;;4.55;;
64653;SDS011;51065;48.884;12.598;2023-02-28T04:38:28;13.93;;;4.80;;
64653;SDS011;51065;48.884;12.598;2023-02-28T04:40:56;15.13;;;4.30;;
64653;SDS011;51065;48.884;12.598;2023-02-28T04:43:22;14.80;;;4.50;;
64653;SDS011;51065;48.884;12.598;2023-02-28T04:45:48;12.65;;;4.63;;
64653;SDS011;51065;48.884;12.598;2023-02-28T04:48:13;15.45;;;4.68;;
64653;SDS011;51065;48.884;12.598;2023-02-28T04:50:39;14.70;;;4.82;;
64653;SDS011;51065;48.884;12.598;2023-02-28T04:53:05;14.40;;;4.72;;
64653;SDS011;51065;48.884;12.598;2023-02-28T04:55:31;12.52;;;4.28;;
64653;SDS011;51065;48.884;12.598;2023-02-28T04:57:57;12.95;;;4.70;;
64653;SDS011;51065;48.884;12.598;2023-02-28T05:00:22;15.18;;;5.20;;
64653;SDS011;51065;48.884;12.598;2023-02-28T05:02:48;10.48;;;4.18;;
64653;SDS011;51065;48.884;12.598;2023-02-28T05:05:13;14.52;;;4.63;;
64653;SDS011;51065;48.884;12.598;2023-02-28T05:07:43;12.63;;;4.70;;
64653;SDS011;51065;48.884;12.598;2023-02-28T05:10:09;11.30;;;4.07;;
64653;SDS011;51065;48.884;12.598;2023-02-28T05:12:36;14.07;;;4.93;;
64653;SDS011;51065;48.884;12.598;2023-02-28T05:15:01;16.40;;;5.72;;
64653;SDS011;51065;48.884;12.598;2023-02-28T05:17:28;12.82;;;5.07;;
64653;SDS011;51065;48.884;12.598;2023-02-28T05:19:53;14.70;;;4.70;;
64653;SDS011;51065;48.884;12.598;2023-02-28T05:22:19;11.65;;;4.47;;
64653;SDS011;51065;48.884;12.598;2023-02-28T05:24:44;11.15;;;4.72;;
64653;SDS011;51065;48.884;12.598;2023-02-28T05:27:10;11.38;;;4.95;;
64653;SDS011;51065;48.884;12.598;2023-02-28T05:29:36;15.70;;;6.07;;
64653;SDS011;51065;48.884;12.598;2023-02-28T05:32:07;12.23;;;4.53;;
64653;SDS011;51065;48.884;12.598;2023-02-28T05:34:33;11.23;;;4.45;;
64653;SDS011;51065;48.884;12.598;2023-02-28T05:36:59;14.68;;;4.55;;
64653;SDS011;51065;48.884;12.598;2023-02-28T05:39:24;11.77;;;4.65;;
64653;SDS011;51065;48.884;12.598;2023-02-28T05:41:50;14.25;;;5.10;;
64653;SDS011;51065;48.884;12.598;2023-02-28T05:44:15;14.10;;;5.18;;
64653;SDS011;51065;48.884;12.598;2023-02-28T05:46:41;14.32;;;5.00;;
64653;SDS011;51065;48.884;12.598;2023-02-28T05:49:07;15.05;;;4.85;;
64653;SDS011;51065;48.884;12.598;2023-02-28T05:51:32;17.02;;;6.13;;
64653;SDS011;51065;48.884;12.598;2023-02-28T05:53:59;14.93;;;5.30;;
64653;SDS011;51065;48.884;12.598;2023-02-28T05:56:26;12.75;;;4.25;;
64653;SDS011;51065;48.884;12.598;2023-02-28T05:58:52;14.18;;;5.28;;
64653;SDS011;51065;48.884;12.598;2023-02-28T06:03:55;12.88;;;4.15;;
64653;SDS011;51065;48.884;12.598;2023-02-28T06:06:20;15.00;;;5.15;;
64653;SDS011;51065;48.884;12.598;2023-02-28T06:08:46;14.68;;;5.35;;
64653;SDS011;51065;48.884;12.598;2023-02-28T06:11:12;11.77;;;4.97;;
64653;SDS011;51065;48.884;12.598;2023-02-28T06:13:38;13.60;;;5.32;;
64653;SDS011;51065;48.884;12.598;2023-02-28T06:16:03;12.55;;;5.07;;
64653;SDS011;51065;48.884;12.598;2023-02-28T06:18:30;13.00;;;4.97;;
64653;SDS011;51065;48.884;12.598;2023-02-28T06:20:56;12.77;;;4.90;;
64653;SDS011;51065;48.884;12.598;2023-02-28T06:23:22;11.60;;;4.28;;
64653;SDS011;51065;48.884;12.598;2023-02-28T06:25:47;16.85;;;5.50;;
64653;SDS011;51065;48.884;12.598;2023-02-28T06:28:14;16.95;;;5.72;;
64653;SDS011;51065;48.884;12.598;2023-02-28T06:30:39;13.35;;;5.25;;
64653;SDS011;51065;48.884;12.598;2023-02-28T06:33:05;13.45;;;4.72;;
64653;SDS011;51065;48.884;12.598;2023-02-28T06:35:31;14.23;;;4.85;;
64653;SDS011;51065;48.884;12.598;2023-02-28T06:37:57;13.15;;;5.30;;
64653;SDS011;51065;48.884;12.598;2023-02-28T06:40:22;12.77;;;5.13;;
64653;SDS011;51065;48.884;12.598;2023-02-28T06:42:48;13.88;;;4.60;;
64653;SDS011;51065;48.884;12.598;2023-02-28T06:45:14;13.15;;;4.57;;
64653;SDS011;51065;48.884;12.598;2023-02-28T06:47:40;15.07;;;5.30;;
64653;SDS011;51065;48.884;12.598;2023-02-28T06:50:07;11.98;;;4.57;;
64653;SDS011;51065;48.884;12.598;2023-02-28T06:52:34;14.15;;;5.13;;
64653;SDS011;51065;48.884;12.598;2023-02-28T06:55:02;13.68;;;4.28;;
64653;SDS011;51065;48.884;12.598;2023-02-28T06:57:32;13.68;;;4.75;;
64653;SDS011;51065;48.884;12.598;2023-02-28T07:00:00;11.75;;;4.50;;
64653;SDS011;51065;48.884;12.598;2023-02-28T07:02:28;11.75;;;3.83;;
64653;SDS011;51065;48.884;12.598;2023-02-28T07:04:53;12.55;;;4.57;;
64653;SDS011;51065;48.884;12.598;2023-02-28T07:07:19;12.82;;;4.57;;
64653;SDS011;51065;48.884;12.598;2023-02-28T07:09:48;12.73;;;4.50;;
64653;SDS011;51065;48.884;12.598;2023-02-28T07:12:13;12.13;;;4.82;;
64653;SDS011;51065;48.884;12.598;2023-02-28T07:14:39;12.38;;;4.78;;
64653;SDS011;51065;48.884;12.598;2023-02-28T07:17:06;12.02;;;4.57;;
64653;SDS011;51065;48.884;12.598;2023-02-28T07:19:33;9.60;;;3.85;;
64653;SDS011;51065;48.884;12.598;2023-02-28T07:21:59;12.75;;;4.43;;
64653;SDS011;51065;48.884;12.598;2023-02-28T07:24:24;11.38;;;4.53;;
64653;SDS011;51065;48.884;12.598;2023-02-28T07:26:53;11.13;;;4.18;;
64653;SDS011;51065;48.884;12.598;2023-02-28T07:29:18;9.57;;;4.00;;
64653;SDS011;51065;48.884;12.598;2023-02-28T07:31:44;11.45;;;3.90;;
64653;SDS011;51065;48.884;12.598;2023-02-28T07:34:14;9.95;;;4.03;;
64653;SDS011;51065;48.884;12.598;2023-02-28T07:36:40;13.52;;;4.78;;
64653;SDS011;51065;48.884;12.598;2023-02-28T07:39:05;11.15;;;4.30;;
64653;SDS011;51065;48.884;12.598;2023-02-28T07:41:31;14.43;;;5.20;;
64653;SDS011;51065;48.884;12.598;2023-02-28T07:43:59;14.15;;;4.88;;
64653;SDS011;51065;48.884;12.598;2023-02-28T07:46:25;12.13;;;4.45;;
64653;SDS011;51065;48.884;12.598;2023-02-28T07:48:51;11.38;;;4.63;;
64653;SDS011;51065;48.884;12.598;2023-02-28T07:51:18;13.55;;;4.38;;
64653;SDS011;51065;48.884;12.598;2023-02-28T07:53:44;10.32;;;4.30;;
64653;SDS011;51065;48.884;12.598;2023-02-28T07:56:09;13.50;;;5.03;;
64653;SDS011;51065;48.884;12.598;2023-02-28T07:58:35;12.98;;;4.30;;
64653;SDS011;51065;48.884;12.598;2023-02-28T08:01:05;10.70;;;4.20;;
64653;SDS011;51065;48.884;12.598;2023-02-28T08:03:31;13.30;;;4.05;;
64653;SDS011;51065;48.884;12.598;2023-02-28T08:05:57;14.73;;;6.68;;
64653;SDS011;51065;48.884;12.598;2023-02-28T08:08:23;11.18;;;4.47;;
64653;SDS011;51065;48.884;12.598;2023-02-28T08:10:48;11.60;;;3.90;;
64653;SDS011;51065;48.884;12.598;2023-02-28T08:13:14;10.13;;;3.88;;
64653;SDS011;51065;48.884;12.598;2023-02-28T08:15:41;12.45;;;4.20;;
64653;SDS011;51065;48.884;12.598;2023-02-28T08:18:07;12.60;;;3.55;;
64653;SDS011;51065;48.884;12.598;2023-02-28T08:20:33;11.95;;;4.57;;
64653;SDS011;51065;48.884;12.598;2023-02-28T08:22:59;14.52;;;4.30;;
64653;SDS011;51065;48.884;12.598;2023-02-28T08:25:24;9.68;;;4.05;;
64653;SDS011;51065;48.884;12.598;2023-02-28T08:27:51;13.32;;;4.75;;
64653;SDS011;51065;48.884;12.598;2023-02-28T08:30:17;10.07;;;4.28;;
64653;SDS011;51065;48.884;12.598;2023-02-28T08:32:43;13.35;;;4.90;;
64653;SDS011;51065;48.884;12.598;2023-02-28T08:35:08;10.68;;;4.72;;
64653;SDS011;51065;48.884;12.598;2023-02-28T08:37:34;11.18;;;3.95;;
64653;SDS011;51065;48.884;12.598;2023-02-28T08:40:00;14.23;;;4.82;;
64653;SDS011;51065;48.884;12.598;2023-02-28T08:42:26;12.05;;;4.32;;
64653;SDS011;51065;48.884;12.598;2023-02-28T08:44:52;11.48;;;3.92;;
64653;SDS011;51065;48.884;12.598;2023-02-28T08:47:17;10.25;;;4.00;;
64653;SDS011;51065;48.884;12.598;2023-02-28T08:50:38;11.70;;;4.68;;
64653;SDS011;51065;48.884;12.598;2023-02-28T08:53:03;11.10;;;4.28;;
64653;SDS011;51065;48.884;12.598;2023-02-28T08:55:29;10.90;;;4.68;;
64653;SDS011;51065;48.884;12.598;2023-02-28T08:57:55;9.63;;;3.90;;
64653;SDS011;51065;48.884;12.598;2023-02-28T09:00:20;11.63;;;4.20;;
64653;SDS011;51065;48.884;12.598;2023-02-28T09:02:46;9.80;;;3.90;;
64653;SDS011;51065;48.884;12.598;2023-02-28T09:05:12;10.55;;;4.05;;
64653;SDS011;51065;48.884;12.598;2023-02-28T09:07:37;7.72;;;3.50;;
64653;SDS011;51065;48.884;12.598;2023-02-28T09:10:03;11.13;;;4.15;;
64653;SDS011;51065;48.884;12.598;2023-02-28T09:12:31;8.93;;;3.47;;
64653;SDS011;51065;48.884;12.598;2023-02-28T09:14:58;9.95;;;4.15;;
64653;SDS011;51065;48.884;12.598;2023-02-28T09:17:24;11.07;;;4.32;;
64653;SDS011;51065;48.884;12.598;2023-02-28T09:19:49;9.93;;;3.78;;
64653;SDS011;51065;48.884;12.598;2023-02-28T09:22:15;7.88;;;3.45;;
64653;SDS011;51065;48.884;12.598;2023-02-28T09:24:41;10.50;;;3.90;;
64653;SDS011;51065;48.884;12.598;2023-02-28T09:27:07;8.88;;;3.38;;
64653;SDS011;51065;48.884;12.598;2023-02-28T09:29:33;11.10;;;4.38;;
64653;SDS011;51065;48.884;12.598;2023-02-28T09:31:59;11.77;;;3.85;;
64653;SDS011;51065;48.884;12.598;2023-02-28T09:34:26;9.75;;;3.80;;
64653;SDS011;51065;48.884;12.598;2023-02-28T09:36:52;10.25;;;4.47;;
64653;SDS011;51065;48.884;12.598;2023-02-28T09:39:20;10.60;;;4.57;;
64653;SDS011;51065;48.884;12.598;2023-02-28T09:41:47;9.07;;;3.70;;
64653;SDS011;51065;48.884;12.598;2023-02-28T09:46:55;10.13;;;3.90;;
64653;SDS011;51065;48.884;12.598;2023-02-28T09:49:25;11.60;;;4.78;;
64653;SDS011;51065;48.884;12.598;2023-02-28T09:52:09;13.00;;;4.50;;
64653;SDS011;51065;48.884;12.598;2023-02-28T09:54:37;9.85;;;3.42;;
64653;SDS011;51065;48.884;12.598;2023-02-28T10:08:32;10.95;;;3.65;;
64653;SDS011;51065;48.884;12.598;2023-02-28T10:11:07;9.23;;;3.55;;
64653;SDS011;51065;48.884;12.598;2023-02-28T10:13:40;9.35;;;3.60;;
64653;SDS011;51065;48.884;12.598;2023-02-28T10:19:16;9.10;;;3.58;;
64653;SDS011;51065;48.884;12.598;2023-02-28T10:21:56;11.10;;;4.00;;
64653;SDS011;51065;48.884;12.598;2023-02-28T10:24:40;12.23;;;4.10;;
64653;SDS011;51065;48.884;12.598;2023-02-28T10:29:49;7.10;;;3.55;;
64653;SDS011;51065;48.884;12.598;2023-02-28T10:32:20;9.15;;;4.00;;
64653;SDS011;51065;48.884;12.598;2023-02-28T10:35:00;12.07;;;4.32;;
64653;SDS011;51065;48.884;12.598;2023-02-28T10:37:39;8.43;;;3.65;;
64653;SDS011;51065;48.884;12.598;2023-02-28T10:40:06;9.00;;;3.67;;
64653;SDS011;51065;48.884;12.598;2023-02-28T10:42:55;9.90;;;3.92;;
64653;SDS011;51065;48.884;12.598;2023-02-28T10:45:21;10.02;;;4.50;;
64653;SDS011;51065;48.884;12.598;2023-02-28T10:56:03;9.25;;;4.30;;
64653;SDS011;51065;48.884;12.598;2023-02-28T11:01:20;9.05;;;3.75;;
64653;SDS011;51065;48.884;12.598;2023-02-28T11:03:54;11.65;;;3.70;;
64653;SDS011;51065;48.884;12.598;2023-02-28T11:06:30;9.98;;;3.78;;
64653;SDS011;51065;48.884;12.598;2023-02-28T11:08:58;8.50;;;3.90;;
64653;SDS011;51065;48.884;12.598;2023-02-28T11:11:45;9.15;;;4.18;;
64653;SDS011;51065;48.884;12.598;2023-02-28T11:14:17;9.68;;;3.67;;
64653;SDS011;51065;48.884;12.598;2023-02-28T11:16:50;9.93;;;3.60;;
64653;SDS011;51065;48.884;12.598;2023-02-28T11:19:22;8.35;;;3.90;;
64653;SDS011;51065;48.884;12.598;2023-02-28T11:21:52;10.05;;;3.55;;
64653;SDS011;51065;48.884;12.598;2023-02-28T11:24:28;10.32;;;4.60;;
64653;SDS011;51065;48.884;12.598;2023-02-28T11:29:55;9.35;;;3.80;;
64653;SDS011;51065;48.884;12.598;2023-02-28T11:32:22;10.20;;;4.22;;
64653;SDS011;51065;48.884;12.598;2023-02-28T11:35:03;10.18;;;4.05;;
64653;SDS011;51065;48.884;12.598;2023-02-28T11:37:40;8.38;;;3.53;;
64653;SDS011;51065;48.884;12.598;2023-02-28T11:40:12;10.25;;;4.10;;
64653;SDS011;51065;48.884;12.598;2023-02-28T11:42:46;10.60;;;4.13;;
64653;SDS011;51065;48.884;12.598;2023-02-28T11:48:00;10.40;;;4.13;;
64653;SDS011;51065;48.884;12.598;2023-02-28T11:53:47;10.48;;;4.18;;
64653;SDS011;51065;48.884;12.598;2023-02-28T12:02:29;10.32;;;4.25;;
64653;SDS011;51065;48.884;12.598;2023-02-28T12:08:06;11.68;;;4.15;;
64653;SDS011;51065;48.884;12.598;2023-02-28T12:10:44;10.10;;;4.20;;
64653;SDS011;51065;48.884;12.598;2023-02-28T12:13:20;9.45;;;4.07;;
64653;SDS011;51065;48.884;12.598;2023-02-28T12:16:12;9.00;;;4.07;;
64653;SDS011;51065;48.884;12.598;2023-02-28T12:21:52;9.52;;;4.05;;
64653;SDS011;51065;48.884;12.598;2023-02-28T12:24:39;9.95;;;4.15;;
64653;SDS011;51065;48.884;12.598;2023-02-28T12:27:21;12.75;;;4.57;;
64653;SDS011;51065;48.884;12.598;2023-02-28T12:29:57;11.48;;;3.90;;
64653;SDS011;51065;48.884;12.598;2023-02-28T12:35:06;7.90;;;3.92;;
64653;SDS011;51065;48.884;12.598;2023-02-28T12:37:43;10.63;;;4.45;;
64653;SDS011;51065;48.884;12.598;2023-02-28T12:40:17;9.50;;;3.60;;
64653;SDS011;51065;48.884;12.598;2023-02-28T12:42:47;11.02;;;4.95;;
64653;SDS011;51065;48.884;12.598;2023-02-28T12:45:20;11.45;;;4.28;;
64653;SDS011;51065;48.884;12.598;2023-02-28T12:48:08;11.15;;;4.35;;
64653;SDS011;51065;48.884;12.598;2023-02-28T12:50:38;9.68;;;4.30;;
64653;SDS011;51065;48.884;12.598;2023-02-28T12:58:45;10.13;;;3.80;;
64653;SDS011;51065;48.884;12.598;2023-02-28T13:08:59;7.53;;;3.63;;
64653;SDS011;51065;48.884;12.598;2023-02-28T13:11:43;10.57;;;4.38;;
64653;SDS011;51065;48.884;12.598;2023-02-28T13:14:29;9.70;;;4.22;;
64653;SDS011;51065;48.884;12.598;2023-02-28T13:17:03;13.05;;;4.55;;
64653;SDS011;51065;48.884;12.598;2023-02-28T13:20:18;11.07;;;4.28;;
64653;SDS011;51065;48.884;12.598;2023-02-28T13:22:38;12.70;;;4.88;;
64653;SDS011;51065;48.884;12.598;2023-02-28T13:27:59;11.88;;;4.82;;
64653;SDS011;51065;48.884;12.598;2023-02-28T13:38:44;10.40;;;4.07;;
64653;SDS011;51065;48.884;12.598;2023-02-28T13:44:00;9.90;;;4.28;;
64653;SDS011;51065;48.884;12.598;2023-02-28T13:46:31;13.45;;;4.90;;
64653;SDS011;51065;48.884;12.598;2023-02-28T13:54:54;15.95;;;6.13;;
64653;SDS011;51065;48.884;12.598;2023-02-28T14:05:41;10.65;;;4.18;;
64653;SDS011;51065;48.884;12.598;2023-02-28T14:08:17;12.25;;;4.57;;
64653;SDS011;51065;48.884;12.598;2023-02-28T14:10:48;13.57;;;5.30;;
64653;SDS011;51065;48.884;12.598;2023-02-28T14:16:00;11.75;;;4.80;;
64653;SDS011;51065;48.884;12.598;2023-02-28T14:18:31;12.90;;;5.28;;
64653;SDS011;51065;48.884;12.598;2023-02-28T14:32:01;12.68;;;5.05;;
64653;SDS011;51065;48.884;12.598;2023-02-28T14:37:28;10.70;;;4.60;;
64653;SDS011;51065;48.884;12.598;2023-02-28T14:39:57;11.65;;;4.55;;
64653;SDS011;51065;48.884;12.598;2023-02-28T14:44:55;11.00;;;4.65;;
64653;SDS011;51065;48.884;12.598;2023-02-28T14:47:21;11.02;;;4.50;;
64653;SDS011;51065;48.884;12.598;2023-02-28T14:49:52;14.10;;;5.65;;
64653;SDS011;51065;48.884;12.598;2023-02-28T14:54:46;13.35;;;5.10;;
64653;SDS011;51065;48.884;12.598;2023-02-28T14:58:03;13.85;;;5.43;;
64653;SDS011;51065;48.884;12.598;2023-02-28T15:00:31;13.95;;;5.22;;
64653;SDS011;51065;48.884;12.598;2023-02-28T15:08:01;13.20;;;5.32;;
64653;SDS011;51065;48.884;12.598;2023-02-28T15:10:29;14.13;;;5.22;;
64653;SDS011;51065;48.884;12.598;2023-02-28T15:12:57;13.02;;;5.03;;
64653;SDS011;51065;48.884;12.598;2023-02-28T15:15:26;15.60;;;5.93;;
64653;SDS011;51065;48.884;12.598;2023-02-28T15:18:00;14.60;;;5.15;;
64653;SDS011;51065;48.884;12.598;2023-02-28T15:20:30;13.82;;;5.60;;
64653;SDS011;51065;48.884;12.598;2023-02-28T15:22:57;14.25;;;5.38;;
64653;SDS011;51065;48.884;12.598;2023-02-28T15:25:23;10.73;;;4.97;;
64653;SDS011;51065;48.884;12.598;2023-02-28T15:27:52;15.32;;;5.65;;
64653;SDS011;51065;48.884;12.598;2023-02-28T15:30:21;12.30;;;4.90;;
64653;SDS011;51065;48.884;12.598;2023-02-28T15:33:04;15.27;;;6.07;;
64653;SDS011;51065;48.884;12.598;2023-02-28T15:35:31;14.98;;;5.65;;
64653;SDS011;51065;48.884;12.598;2023-02-28T15:38:17;13.88;;;5.50;;
64653;SDS011;51065;48.884;12.598;2023-02-28T15:40:49;14.48;;;5.40;;
64653;SDS011;51065;48.884;12.598;2023-02-28T15:43:32;16.77;;;6.90;;
64653;SDS011;51065;48.884;12.598;2023-02-28T15:46:00;17.00;;;6.05;;
64653;SDS011;51065;48.884;12.598;2023-02-28T15:48:35;17.08;;;5.90;;
64653;SDS011;51065;48.884;12.598;2023-02-28T15:51:07;17.67;;;7.60;;
64653;SDS011;51065;48.884;12.598;2023-02-28T15:53:37;16.35;;;6.40;;
64653;SDS011;51065;48.884;12.598;2023-02-28T15:56:23;17.92;;;6.38;;
64653;SDS011;51065;48.884;12.598;2023-02-28T15:58:56;13.73;;;5.43;;
64653;SDS011;51065;48.884;12.598;2023-02-28T16:01:25;16.63;;;6.43;;
64653;SDS011;51065;48.884;12.598;2023-02-28T16:04:06;17.70;;;6.45;;
64653;SDS011;51065;48.884;12.598;2023-02-28T16:06:43;17.33;;;6.13;;
64653;SDS011;51065;48.884;12.598;2023-02-28T16:09:14;15.52;;;5.93;;
64653;SDS011;51065;48.884;12.598;2023-02-28T16:11:51;16.70;;;5.90;;
64653;SDS011;51065;48.884;12.598;2023-02-28T16:14:21;15.77;;;6.75;;
64653;SDS011;51065;48.884;12.598;2023-02-28T16:16:50;17.05;;;7.00;;
64653;SDS011;51065;48.884;12.598;2023-02-28T16:19:18;17.00;;;6.07;;
64653;SDS011;51065;48.884;12.598;2023-02-28T16:21:44;14.35;;;5.55;;
64653;SDS011;51065;48.884;12.598;2023-02-28T16:24:10;15.73;;;5.93;;
64653;SDS011;51065;48.884;12.598;2023-02-28T16:26:36;16.85;;;6.25;;
64653;SDS011;51065;48.884;12.598;2023-02-28T16:29:04;16.63;;;5.63;;
64653;SDS011;51065;48.884;12.598;2023-02-28T16:31:31;15.68;;;5.78;;
64653;SDS011;51065;48.884;12.598;2023-02-28T16:34:00;17.95;;;6.53;;
64653;SDS011;51065;48.884;12.598;2023-02-28T16:36:26;17.02;;;6.50;;
64653;SDS011;51065;48.884;12.598;2023-02-28T16:38:52;18.52;;;6.70;;
64653;SDS011;51065;48.884;12.598;2023-02-28T16:41:20;15.98;;;5.85;;
64653;SDS011;51065;48.884;12.598;2023-02-28T16:43:48;18.60;;;6.53;;
64653;SDS011;51065;48.884;12.598;2023-02-28T16:46:16;17.02;;;6.95;;
64653;SDS011;51065;48.884;12.598;2023-02-28T16:48:43;19.13;;;7.68;;
64653;SDS011;51065;48.884;12.598;2023-02-28T16:51:13;16.55;;;6.57;;
64653;SDS011;51065;48.884;12.598;2023-02-28T16:53:40;19.25;;;7.35;;
64653;SDS011;51065;48.884;12.598;2023-02-28T16:56:06;18.80;;;6.65;;
64653;SDS011;51065;48.884;12.598;2023-02-28T16:58:38;16.17;;;6.93;;
64653;SDS011;51065;48.884;12.598;2023-02-28T17:01:04;17.80;;;6.97;;
64653;SDS011;51065;48.884;12.598;2023-02-28T17:03:29;17.77;;;6.95;;
64653;SDS011;51065;48.884;12.598;2023-02-28T17:05:55;21.80;;;8.38;;
64653;SDS011;51065;48.884;12.598;2023-02-28T17:08:21;20.95;;;8.35;;
64653;SDS011;51065;48.884;12.598;2023-02-28T17:10:46;20.00;;;7.95;;
64653;SDS011;51065;48.884;12.598;2023-02-28T17:13:12;19.52;;;7.95;;
64653;SDS011;51065;48.884;12.598;2023-02-28T17:15:37;19.98;;;8.35;;
64653;SDS011;51065;48.884;12.598;2023-02-28T17:18:04;20.70;;;9.20;;
64653;SDS011;51065;48.884;12.598;2023-02-28T17:20:30;19.02;;;7.20;;